sensor_id;sensor_type;location;lat;lon;timestamp;pressure;altitude;pressure_sealevel;temperature
65569;BMP180;52211;50.154;8.682;2022-07-23T00:00:58;100028.00;;;27.20
65569;BMP180;52211;50.154;8.682;2022-07-23T00:03:30;100024.00;;;27.20
65569;BMP180;52211;50.154;8.682;2022-07-23T00:05:57;100026.00;;;27.20
65569;BMP180;52211;50.154;8.682;2022-07-23T00:08:26;100007.00;;;27.20
65569;BMP180;52211;50.154;8.682;2022-07-23T00:10:53;100000.00;;;27.20
65569;BMP180;52211;50.154;8.682;2022-07-23T00:13:24;99993.00;;;27.10
65569;BMP180;52211;50.154;8.682;2022-07-23T00:15:54;99991.00;;;27.10
65569;BMP180;52211;50.154;8.682;2022-07-23T00:18:24;99989.00;;;27.00
65569;BMP180;52211;50.154;8.682;2022-07-23T00:20:52;99985.00;;;27.00
65569;BMP180;52211;50.154;8.682;2022-07-23T00:23:19;99986.00;;;27.00
65569;BMP180;52211;50.154;8.682;2022-07-23T00:25:49;99991.00;;;26.90
65569;BMP180;52211;50.154;8.682;2022-07-23T00:28:21;99987.00;;;26.90
65569;BMP180;52211;50.154;8.682;2022-07-23T00:30:50;99997.00;;;26.90
65569;BMP180;52211;50.154;8.682;2022-07-23T00:33:19;100003.00;;;26.80
65569;BMP180;52211;50.154;8.682;2022-07-23T00:35:49;100018.00;;;26.80
65569;BMP180;52211;50.154;8.682;2022-07-23T00:38:18;100016.00;;;26.70
65569;BMP180;52211;50.154;8.682;2022-07-23T00:40:45;100022.00;;;26.70
65569;BMP180;52211;50.154;8.682;2022-07-23T00:43:14;100013.00;;;26.70
65569;BMP180;52211;50.154;8.682;2022-07-23T00:45:40;100018.00;;;26.70
65569;BMP180;52211;50.154;8.682;2022-07-23T00:48:08;100017.00;;;26.70
65569;BMP180;52211;50.154;8.682;2022-07-23T00:50:38;99995.00;;;26.70
65569;BMP180;52211;50.154;8.682;2022-07-23T00:53:08;99995.00;;;26.60
65569;BMP180;52211;50.154;8.682;2022-07-23T00:55:35;99994.00;;;26.60
65569;BMP180;52211;50.154;8.682;2022-07-23T00:58:05;99988.00;;;26.60
65569;BMP180;52211;50.154;8.682;2022-07-23T01:00:34;99992.00;;;26.60
65569;BMP180;52211;50.154;8.682;2022-07-23T01:03:04;99998.00;;;26.50
65569;BMP180;52211;50.154;8.682;2022-07-23T01:05:30;100005.00;;;26.50
65569;BMP180;52211;50.154;8.682;2022-07-23T01:08:00;99989.00;;;26.50
65569;BMP180;52211;50.154;8.682;2022-07-23T01:10:26;99989.00;;;26.50
65569;BMP180;52211;50.154;8.682;2022-07-23T01:13:09;99984.00;;;26.40
65569;BMP180;52211;50.154;8.682;2022-07-23T01:15:38;99987.00;;;26.40
65569;BMP180;52211;50.154;8.682;2022-07-23T01:18:07;99980.00;;;26.40
65569;BMP180;52211;50.154;8.682;2022-07-23T01:20:36;99993.00;;;26.40
65569;BMP180;52211;50.154;8.682;2022-07-23T01:23:05;99995.00;;;26.40
65569;BMP180;52211;50.154;8.682;2022-07-23T01:25:32;99998.00;;;26.40
65569;BMP180;52211;50.154;8.682;2022-07-23T01:28:02;99992.00;;;26.30
65569;BMP180;52211;50.154;8.682;2022-07-23T01:30:34;100005.00;;;26.30
65569;BMP180;52211;50.154;8.682;2022-07-23T01:33:03;100015.00;;;26.30
65569;BMP180;52211;50.154;8.682;2022-07-23T01:35:34;100022.00;;;26.30
65569;BMP180;52211;50.154;8.682;2022-07-23T01:38:03;100022.00;;;26.40
65569;BMP180;52211;50.154;8.682;2022-07-23T01:40:33;100023.00;;;26.40
65569;BMP180;52211;50.154;8.682;2022-07-23T01:43:00;100017.00;;;26.40
65569;BMP180;52211;50.154;8.682;2022-07-23T01:45:33;100022.00;;;26.40
65569;BMP180;52211;50.154;8.682;2022-07-23T01:48:02;100017.00;;;26.30
65569;BMP180;52211;50.154;8.682;2022-07-23T01:50:38;100006.00;;;26.30
65569;BMP180;52211;50.154;8.682;2022-07-23T01:53:05;99993.00;;;26.30
65569;BMP180;52211;50.154;8.682;2022-07-23T01:55:31;99971.00;;;26.30
65569;BMP180;52211;50.154;8.682;2022-07-23T01:58:01;99951.00;;;26.30
65569;BMP180;52211;50.154;8.682;2022-07-23T02:00:28;99944.00;;;26.30
65569;BMP180;52211;50.154;8.682;2022-07-23T02:02:57;99972.00;;;26.30
65569;BMP180;52211;50.154;8.682;2022-07-23T02:05:27;99976.00;;;26.30
65569;BMP180;52211;50.154;8.682;2022-07-23T02:07:55;99987.00;;;26.30
65569;BMP180;52211;50.154;8.682;2022-07-23T02:10:27;99985.00;;;26.30
65569;BMP180;52211;50.154;8.682;2022-07-23T02:12:54;99990.00;;;26.30
65569;BMP180;52211;50.154;8.682;2022-07-23T02:15:23;99990.00;;;26.30
65569;BMP180;52211;50.154;8.682;2022-07-23T02:17:50;100009.00;;;26.30
65569;BMP180;52211;50.154;8.682;2022-07-23T02:20:17;100023.00;;;26.30
65569;BMP180;52211;50.154;8.682;2022-07-23T02:22:46;100027.00;;;26.20
65569;BMP180;52211;50.154;8.682;2022-07-23T02:25:13;100024.00;;;26.20
65569;BMP180;52211;50.154;8.682;2022-07-23T02:27:40;100017.00;;;26.20
65569;BMP180;52211;50.154;8.682;2022-07-23T02:30:08;100016.00;;;26.20
65569;BMP180;52211;50.154;8.682;2022-07-23T02:32:37;100023.00;;;26.10
65569;BMP180;52211;50.154;8.682;2022-07-23T02:35:07;100012.00;;;26.10
65569;BMP180;52211;50.154;8.682;2022-07-23T02:37:37;100023.00;;;26.10
65569;BMP180;52211;50.154;8.682;2022-07-23T02:40:07;100021.00;;;26.10
65569;BMP180;52211;50.154;8.682;2022-07-23T02:42:36;100019.00;;;26.10
65569;BMP180;52211;50.154;8.682;2022-07-23T02:45:04;100023.00;;;26.10
65569;BMP180;52211;50.154;8.682;2022-07-23T02:47:31;100020.00;;;26.00
65569;BMP180;52211;50.154;8.682;2022-07-23T02:50:01;100018.00;;;26.00
65569;BMP180;52211;50.154;8.682;2022-07-23T02:52:31;100020.00;;;26.00
65569;BMP180;52211;50.154;8.682;2022-07-23T02:54:58;100027.00;;;26.00
65569;BMP180;52211;50.154;8.682;2022-07-23T02:57:27;100037.00;;;26.00
65569;BMP180;52211;50.154;8.682;2022-07-23T02:59:54;100033.00;;;26.00
65569;BMP180;52211;50.154;8.682;2022-07-23T03:02:21;100020.00;;;26.00
65569;BMP180;52211;50.154;8.682;2022-07-23T03:04:50;100019.00;;;26.00
65569;BMP180;52211;50.154;8.682;2022-07-23T03:07:18;100023.00;;;25.90
65569;BMP180;52211;50.154;8.682;2022-07-23T03:09:47;100042.00;;;25.90
65569;BMP180;52211;50.154;8.682;2022-07-23T03:12:16;100035.00;;;25.90
65569;BMP180;52211;50.154;8.682;2022-07-23T03:14:42;100026.00;;;25.90
65569;BMP180;52211;50.154;8.682;2022-07-23T03:17:15;100023.00;;;25.90
65569;BMP180;52211;50.154;8.682;2022-07-23T03:19:46;100013.00;;;25.80
65569;BMP180;52211;50.154;8.682;2022-07-23T03:22:18;100012.00;;;25.80
65569;BMP180;52211;50.154;8.682;2022-07-23T03:24:45;100024.00;;;25.80
65569;BMP180;52211;50.154;8.682;2022-07-23T03:27:22;100022.00;;;25.70
65569;BMP180;52211;50.154;8.682;2022-07-23T03:29:56;100027.00;;;25.70
65569;BMP180;52211;50.154;8.682;2022-07-23T03:32:24;100025.00;;;25.70
65569;BMP180;52211;50.154;8.682;2022-07-23T03:34:53;100023.00;;;25.70
65569;BMP180;52211;50.154;8.682;2022-07-23T03:37:23;100028.00;;;25.60
65569;BMP180;52211;50.154;8.682;2022-07-23T03:39:50;100029.00;;;25.60
65569;BMP180;52211;50.154;8.682;2022-07-23T03:42:17;100032.00;;;25.60
65569;BMP180;52211;50.154;8.682;2022-07-23T03:44:46;100035.00;;;25.60
65569;BMP180;52211;50.154;8.682;2022-07-23T03:47:15;100045.00;;;25.60
65569;BMP180;52211;50.154;8.682;2022-07-23T03:49:46;100045.00;;;25.60
65569;BMP180;52211;50.154;8.682;2022-07-23T03:52:12;100043.00;;;25.50
65569;BMP180;52211;50.154;8.682;2022-07-23T03:54:42;100048.00;;;25.50
65569;BMP180;52211;50.154;8.682;2022-07-23T03:57:11;100060.00;;;25.50
65569;BMP180;52211;50.154;8.682;2022-07-23T03:59:40;100057.00;;;25.50
65569;BMP180;52211;50.154;8.682;2022-07-23T04:02:09;100058.00;;;25.50
65569;BMP180;52211;50.154;8.682;2022-07-23T04:04:36;100053.00;;;25.50
65569;BMP180;52211;50.154;8.682;2022-07-23T04:07:05;100060.00;;;25.40
65569;BMP180;52211;50.154;8.682;2022-07-23T04:09:34;100074.00;;;25.40
65569;BMP180;52211;50.154;8.682;2022-07-23T04:12:01;100066.00;;;25.40
65569;BMP180;52211;50.154;8.682;2022-07-23T04:14:30;100064.00;;;25.40
65569;BMP180;52211;50.154;8.682;2022-07-23T04:16:59;100065.00;;;25.40
65569;BMP180;52211;50.154;8.682;2022-07-23T04:19:26;100062.00;;;25.40
65569;BMP180;52211;50.154;8.682;2022-07-23T04:21:53;100065.00;;;25.30
65569;BMP180;52211;50.154;8.682;2022-07-23T04:24:20;100060.00;;;25.30
65569;BMP180;52211;50.154;8.682;2022-07-23T04:26:47;100058.00;;;25.30
65569;BMP180;52211;50.154;8.682;2022-07-23T04:29:16;100056.00;;;25.30
65569;BMP180;52211;50.154;8.682;2022-07-23T04:31:43;100065.00;;;25.30
65569;BMP180;52211;50.154;8.682;2022-07-23T04:34:12;100073.00;;;25.20
65569;BMP180;52211;50.154;8.682;2022-07-23T04:36:41;100084.00;;;25.20
65569;BMP180;52211;50.154;8.682;2022-07-23T04:39:10;100092.00;;;25.20
65569;BMP180;52211;50.154;8.682;2022-07-23T04:41:39;100093.00;;;25.10
65569;BMP180;52211;50.154;8.682;2022-07-23T04:44:13;100104.00;;;25.10
65569;BMP180;52211;50.154;8.682;2022-07-23T04:46:42;100106.00;;;25.10
65569;BMP180;52211;50.154;8.682;2022-07-23T04:49:09;100101.00;;;25.10
65569;BMP180;52211;50.154;8.682;2022-07-23T04:51:36;100100.00;;;25.10
65569;BMP180;52211;50.154;8.682;2022-07-23T04:54:03;100106.00;;;25.10
65569;BMP180;52211;50.154;8.682;2022-07-23T04:56:30;100117.00;;;25.10
65569;BMP180;52211;50.154;8.682;2022-07-23T04:58:56;100109.00;;;25.10
65569;BMP180;52211;50.154;8.682;2022-07-23T05:01:26;100117.00;;;25.10
65569;BMP180;52211;50.154;8.682;2022-07-23T05:03:53;100127.00;;;25.20
65569;BMP180;52211;50.154;8.682;2022-07-23T05:06:20;100125.00;;;25.20
65569;BMP180;52211;50.154;8.682;2022-07-23T05:08:49;100129.00;;;25.20
65569;BMP180;52211;50.154;8.682;2022-07-23T05:11:15;100121.00;;;25.30
65569;BMP180;52211;50.154;8.682;2022-07-23T05:13:53;100125.00;;;25.30
65569;BMP180;52211;50.154;8.682;2022-07-23T05:16:26;100128.00;;;25.30
65569;BMP180;52211;50.154;8.682;2022-07-23T05:18:55;100135.00;;;25.30
65569;BMP180;52211;50.154;8.682;2022-07-23T05:21:25;100125.00;;;25.30
65569;BMP180;52211;50.154;8.682;2022-07-23T05:23:54;100129.00;;;25.30
65569;BMP180;52211;50.154;8.682;2022-07-23T05:26:20;100138.00;;;25.30
65569;BMP180;52211;50.154;8.682;2022-07-23T05:28:47;100128.00;;;25.30
65569;BMP180;52211;50.154;8.682;2022-07-23T05:31:20;100132.00;;;25.30
65569;BMP180;52211;50.154;8.682;2022-07-23T05:33:49;100125.00;;;25.30
65569;BMP180;52211;50.154;8.682;2022-07-23T05:36:16;100133.00;;;25.40
65569;BMP180;52211;50.154;8.682;2022-07-23T05:38:43;100127.00;;;25.40
65569;BMP180;52211;50.154;8.682;2022-07-23T05:41:12;100134.00;;;25.40
65569;BMP180;52211;50.154;8.682;2022-07-23T05:43:39;100136.00;;;25.40
65569;BMP180;52211;50.154;8.682;2022-07-23T05:46:06;100149.00;;;25.40
65569;BMP180;52211;50.154;8.682;2022-07-23T05:48:35;100150.00;;;25.40
65569;BMP180;52211;50.154;8.682;2022-07-23T05:51:02;100150.00;;;25.40
65569;BMP180;52211;50.154;8.682;2022-07-23T05:53:34;100159.00;;;25.40
65569;BMP180;52211;50.154;8.682;2022-07-23T05:56:04;100165.00;;;25.40
65569;BMP180;52211;50.154;8.682;2022-07-23T05:58:33;100166.00;;;25.40
65569;BMP180;52211;50.154;8.682;2022-07-23T06:01:05;100166.00;;;25.40
65569;BMP180;52211;50.154;8.682;2022-07-23T06:03:34;100159.00;;;25.40
65569;BMP180;52211;50.154;8.682;2022-07-23T06:06:05;100160.00;;;25.40
65569;BMP180;52211;50.154;8.682;2022-07-23T06:08:34;100165.00;;;25.40
65569;BMP180;52211;50.154;8.682;2022-07-23T06:11:05;100164.00;;;25.50
65569;BMP180;52211;50.154;8.682;2022-07-23T06:13:32;100159.00;;;25.40
65569;BMP180;52211;50.154;8.682;2022-07-23T06:15:59;100162.00;;;25.40
65569;BMP180;52211;50.154;8.682;2022-07-23T06:18:31;100168.00;;;25.40
65569;BMP180;52211;50.154;8.682;2022-07-23T06:21:02;100172.00;;;25.40
65569;BMP180;52211;50.154;8.682;2022-07-23T06:23:51;100174.00;;;25.40
65569;BMP180;52211;50.154;8.682;2022-07-23T06:26:18;100167.00;;;25.40
65569;BMP180;52211;50.154;8.682;2022-07-23T06:28:47;100170.00;;;25.40
65569;BMP180;52211;50.154;8.682;2022-07-23T06:31:21;100160.00;;;25.40
65569;BMP180;52211;50.154;8.682;2022-07-23T06:33:48;100172.00;;;25.40
65569;BMP180;52211;50.154;8.682;2022-07-23T06:36:14;100161.00;;;25.50
65569;BMP180;52211;50.154;8.682;2022-07-23T06:38:41;100169.00;;;25.50
65569;BMP180;52211;50.154;8.682;2022-07-23T06:41:13;100178.00;;;25.50
65569;BMP180;52211;50.154;8.682;2022-07-23T06:43:45;100179.00;;;25.50
65569;BMP180;52211;50.154;8.682;2022-07-23T06:46:12;100185.00;;;25.60
65569;BMP180;52211;50.154;8.682;2022-07-23T06:48:43;100186.00;;;25.60
65569;BMP180;52211;50.154;8.682;2022-07-23T06:51:10;100176.00;;;25.60
65569;BMP180;52211;50.154;8.682;2022-07-23T06:53:37;100182.00;;;25.70
65569;BMP180;52211;50.154;8.682;2022-07-23T06:56:04;100174.00;;;25.70
65569;BMP180;52211;50.154;8.682;2022-07-23T06:58:31;100172.00;;;25.80
65569;BMP180;52211;50.154;8.682;2022-07-23T07:01:02;100178.00;;;25.80
65569;BMP180;52211;50.154;8.682;2022-07-23T07:03:34;100177.00;;;25.80
65569;BMP180;52211;50.154;8.682;2022-07-23T07:06:07;100182.00;;;25.90
65569;BMP180;52211;50.154;8.682;2022-07-23T07:08:37;100180.00;;;25.90
65569;BMP180;52211;50.154;8.682;2022-07-23T07:11:06;100183.00;;;25.90
65569;BMP180;52211;50.154;8.682;2022-07-23T07:13:36;100184.00;;;26.00
65569;BMP180;52211;50.154;8.682;2022-07-23T07:16:05;100186.00;;;26.10
65569;BMP180;52211;50.154;8.682;2022-07-23T07:18:34;100197.00;;;26.10
65569;BMP180;52211;50.154;8.682;2022-07-23T07:21:03;100196.00;;;26.20
65569;BMP180;52211;50.154;8.682;2022-07-23T07:23:30;100204.00;;;26.20
65569;BMP180;52211;50.154;8.682;2022-07-23T07:25:59;100210.00;;;26.20
65569;BMP180;52211;50.154;8.682;2022-07-23T07:28:28;100209.00;;;26.20
65569;BMP180;52211;50.154;8.682;2022-07-23T07:30:58;100212.00;;;26.30
65569;BMP180;52211;50.154;8.682;2022-07-23T07:33:27;100219.00;;;26.40
65569;BMP180;52211;50.154;8.682;2022-07-23T07:35:54;100219.00;;;26.40
65569;BMP180;52211;50.154;8.682;2022-07-23T07:38:21;100219.00;;;26.50
65569;BMP180;52211;50.154;8.682;2022-07-23T07:40:52;100218.00;;;26.50
65569;BMP180;52211;50.154;8.682;2022-07-23T07:43:22;100228.00;;;26.60
65569;BMP180;52211;50.154;8.682;2022-07-23T07:45:51;100218.00;;;26.60
65569;BMP180;52211;50.154;8.682;2022-07-23T07:48:23;100235.00;;;26.60
65569;BMP180;52211;50.154;8.682;2022-07-23T07:50:54;100232.00;;;26.70
65569;BMP180;52211;50.154;8.682;2022-07-23T07:53:21;100233.00;;;26.80
65569;BMP180;52211;50.154;8.682;2022-07-23T07:55:48;100234.00;;;26.80
65569;BMP180;52211;50.154;8.682;2022-07-23T07:58:22;100230.00;;;26.80
65569;BMP180;52211;50.154;8.682;2022-07-23T08:00:48;100229.00;;;26.90
65569;BMP180;52211;50.154;8.682;2022-07-23T08:03:16;100232.00;;;27.00
65569;BMP180;52211;50.154;8.682;2022-07-23T08:05:43;100232.00;;;27.10
65569;BMP180;52211;50.154;8.682;2022-07-23T08:08:09;100244.00;;;27.20
65569;BMP180;52211;50.154;8.682;2022-07-23T08:10:41;100244.00;;;27.30
65569;BMP180;52211;50.154;8.682;2022-07-23T08:13:15;100253.00;;;27.30
65569;BMP180;52211;50.154;8.682;2022-07-23T08:15:43;100249.00;;;27.50
65569;BMP180;52211;50.154;8.682;2022-07-23T08:18:14;100249.00;;;27.50
65569;BMP180;52211;50.154;8.682;2022-07-23T08:20:46;100251.00;;;27.60
65569;BMP180;52211;50.154;8.682;2022-07-23T08:23:15;100251.00;;;27.70
65569;BMP180;52211;50.154;8.682;2022-07-23T08:25:46;100254.00;;;27.80
65569;BMP180;52211;50.154;8.682;2022-07-23T08:28:14;100255.00;;;27.80
65569;BMP180;52211;50.154;8.682;2022-07-23T08:30:43;100247.00;;;27.90
65569;BMP180;52211;50.154;8.682;2022-07-23T08:33:18;100249.00;;;28.00
65569;BMP180;52211;50.154;8.682;2022-07-23T08:36:02;100255.00;;;28.10
65569;BMP180;52211;50.154;8.682;2022-07-23T08:38:37;100262.00;;;28.20
65569;BMP180;52211;50.154;8.682;2022-07-23T08:41:07;100261.00;;;28.20
65569;BMP180;52211;50.154;8.682;2022-07-23T08:43:36;100267.00;;;28.30
65569;BMP180;52211;50.154;8.682;2022-07-23T08:46:06;100275.00;;;28.40
65569;BMP180;52211;50.154;8.682;2022-07-23T08:48:37;100270.00;;;28.40
65569;BMP180;52211;50.154;8.682;2022-07-23T08:51:10;100273.00;;;28.50
65569;BMP180;52211;50.154;8.682;2022-07-23T08:53:37;100272.00;;;28.50
65569;BMP180;52211;50.154;8.682;2022-07-23T08:56:06;100272.00;;;28.50
65569;BMP180;52211;50.154;8.682;2022-07-23T08:58:34;100273.00;;;28.60
65569;BMP180;52211;50.154;8.682;2022-07-23T09:01:03;100268.00;;;28.60
65569;BMP180;52211;50.154;8.682;2022-07-23T09:03:35;100268.00;;;28.70
65569;BMP180;52211;50.154;8.682;2022-07-23T09:06:06;100262.00;;;28.80
65569;BMP180;52211;50.154;8.682;2022-07-23T09:08:40;100268.00;;;28.90
65569;BMP180;52211;50.154;8.682;2022-07-23T09:11:18;100271.00;;;29.00
65569;BMP180;52211;50.154;8.682;2022-07-23T09:13:51;100267.00;;;29.10
65569;BMP180;52211;50.154;8.682;2022-07-23T09:16:31;100276.00;;;29.20
65569;BMP180;52211;50.154;8.682;2022-07-23T09:19:03;100263.00;;;29.30
65569;BMP180;52211;50.154;8.682;2022-07-23T09:21:36;100262.00;;;29.40
65569;BMP180;52211;50.154;8.682;2022-07-23T09:24:13;100261.00;;;29.50
65569;BMP180;52211;50.154;8.682;2022-07-23T09:26:46;100260.00;;;29.60
65569;BMP180;52211;50.154;8.682;2022-07-23T09:29:25;100254.00;;;29.70
65569;BMP180;52211;50.154;8.682;2022-07-23T09:31:57;100257.00;;;29.80
65569;BMP180;52211;50.154;8.682;2022-07-23T09:34:36;100253.00;;;29.80
65569;BMP180;52211;50.154;8.682;2022-07-23T09:37:14;100253.00;;;29.90
65569;BMP180;52211;50.154;8.682;2022-07-23T09:39:43;100264.00;;;30.00
65569;BMP180;52211;50.154;8.682;2022-07-23T09:42:25;100261.00;;;30.10
65569;BMP180;52211;50.154;8.682;2022-07-23T09:44:56;100270.00;;;30.20
65569;BMP180;52211;50.154;8.682;2022-07-23T09:47:30;100263.00;;;30.30
65569;BMP180;52211;50.154;8.682;2022-07-23T09:50:07;100275.00;;;30.40
65569;BMP180;52211;50.154;8.682;2022-07-23T09:52:49;100270.00;;;30.60
65569;BMP180;52211;50.154;8.682;2022-07-23T09:55:31;100270.00;;;30.60
65569;BMP180;52211;50.154;8.682;2022-07-23T09:58:03;100271.00;;;30.70
65569;BMP180;52211;50.154;8.682;2022-07-23T10:00:32;100267.00;;;30.80
65569;BMP180;52211;50.154;8.682;2022-07-23T10:02:59;100261.00;;;30.80
65569;BMP180;52211;50.154;8.682;2022-07-23T10:05:30;100265.00;;;30.80
65569;BMP180;52211;50.154;8.682;2022-07-23T10:08:02;100264.00;;;30.70
65569;BMP180;52211;50.154;8.682;2022-07-23T10:10:31;100267.00;;;30.80
65569;BMP180;52211;50.154;8.682;2022-07-23T10:13:01;100278.00;;;30.90
65569;BMP180;52211;50.154;8.682;2022-07-23T10:15:50;100271.00;;;30.90
65569;BMP180;52211;50.154;8.682;2022-07-23T10:18:21;100269.00;;;31.00
65569;BMP180;52211;50.154;8.682;2022-07-23T10:20:50;100267.00;;;31.00
65569;BMP180;52211;50.154;8.682;2022-07-23T10:23:37;100268.00;;;31.00
65569;BMP180;52211;50.154;8.682;2022-07-23T10:26:22;100270.00;;;30.90
65569;BMP180;52211;50.154;8.682;2022-07-23T10:32:15;100259.00;;;30.80
65569;BMP180;52211;50.154;8.682;2022-07-23T10:38:27;100260.00;;;31.10
65569;BMP180;52211;50.154;8.682;2022-07-23T10:47:03;100260.00;;;31.60
65569;BMP180;52211;50.154;8.682;2022-07-23T10:49:34;100253.00;;;31.80
65569;BMP180;52211;50.154;8.682;2022-07-23T10:57:51;100257.00;;;32.20
65569;BMP180;52211;50.154;8.682;2022-07-23T11:00:26;100262.00;;;32.40
65569;BMP180;52211;50.154;8.682;2022-07-23T11:03:03;100258.00;;;32.60
65569;BMP180;52211;50.154;8.682;2022-07-23T11:05:45;100254.00;;;32.70
65569;BMP180;52211;50.154;8.682;2022-07-23T11:08:19;100247.00;;;32.90
65569;BMP180;52211;50.154;8.682;2022-07-23T11:24:14;100245.00;;;34.20
65569;BMP180;52211;50.154;8.682;2022-07-23T11:32:08;100233.00;;;34.80
65569;BMP180;52211;50.154;8.682;2022-07-23T11:34:41;100235.00;;;35.00
65569;BMP180;52211;50.154;8.682;2022-07-23T11:37:12;100235.00;;;35.20
65569;BMP180;52211;50.154;8.682;2022-07-23T11:39:39;100236.00;;;35.30
65569;BMP180;52211;50.154;8.682;2022-07-23T11:42:07;100234.00;;;35.50
65569;BMP180;52211;50.154;8.682;2022-07-23T11:44:39;100235.00;;;35.70
65569;BMP180;52211;50.154;8.682;2022-07-23T11:47:10;100237.00;;;35.90
65569;BMP180;52211;50.154;8.682;2022-07-23T11:49:59;100237.00;;;36.00
65569;BMP180;52211;50.154;8.682;2022-07-23T11:52:31;100229.00;;;36.20
65569;BMP180;52211;50.154;8.682;2022-07-23T11:55:02;100241.00;;;36.40
65569;BMP180;52211;50.154;8.682;2022-07-23T11:57:34;100238.00;;;36.60
65569;BMP180;52211;50.154;8.682;2022-07-23T12:00:10;100224.00;;;36.80
65569;BMP180;52211;50.154;8.682;2022-07-23T12:02:45;100239.00;;;37.00
65569;BMP180;52211;50.154;8.682;2022-07-23T12:07:51;100225.00;;;37.30
65569;BMP180;52211;50.154;8.682;2022-07-23T12:10:30;100232.00;;;37.40
65569;BMP180;52211;50.154;8.682;2022-07-23T12:13:14;100235.00;;;37.60
65569;BMP180;52211;50.154;8.682;2022-07-23T12:15:50;100229.00;;;37.80
65569;BMP180;52211;50.154;8.682;2022-07-23T12:18:29;100228.00;;;38.10
65569;BMP180;52211;50.154;8.682;2022-07-23T12:21:04;100231.00;;;38.30
65569;BMP180;52211;50.154;8.682;2022-07-23T12:23:31;100228.00;;;38.50
65569;BMP180;52211;50.154;8.682;2022-07-23T12:26:08;100227.00;;;38.70
65569;BMP180;52211;50.154;8.682;2022-07-23T12:28:38;100216.00;;;39.00
65569;BMP180;52211;50.154;8.682;2022-07-23T12:31:08;100218.00;;;39.20
65569;BMP180;52211;50.154;8.682;2022-07-23T12:33:40;100221.00;;;39.40
65569;BMP180;52211;50.154;8.682;2022-07-23T12:36:09;100220.00;;;39.60
65569;BMP180;52211;50.154;8.682;2022-07-23T12:38:50;100221.00;;;39.80
65569;BMP180;52211;50.154;8.682;2022-07-23T12:41:17;100218.00;;;40.00
65569;BMP180;52211;50.154;8.682;2022-07-23T12:43:46;100226.00;;;40.10
65569;BMP180;52211;50.154;8.682;2022-07-23T12:46:14;100223.00;;;40.30
65569;BMP180;52211;50.154;8.682;2022-07-23T12:48:52;100230.00;;;40.50
65569;BMP180;52211;50.154;8.682;2022-07-23T12:51:31;100233.00;;;40.60
65569;BMP180;52211;50.154;8.682;2022-07-23T12:54:06;100228.00;;;40.80
65569;BMP180;52211;50.154;8.682;2022-07-23T12:56:39;100228.00;;;40.90
65569;BMP180;52211;50.154;8.682;2022-07-23T12:59:17;100225.00;;;40.90
65569;BMP180;52211;50.154;8.682;2022-07-23T13:01:55;100227.00;;;40.90
65569;BMP180;52211;50.154;8.682;2022-07-23T13:04:27;100230.00;;;40.90
65569;BMP180;52211;50.154;8.682;2022-07-23T13:07:00;100229.00;;;40.90
65569;BMP180;52211;50.154;8.682;2022-07-23T13:09:50;100226.00;;;40.80
65569;BMP180;52211;50.154;8.682;2022-07-23T13:12:19;100225.00;;;40.70
65569;BMP180;52211;50.154;8.682;2022-07-23T13:14:46;100230.00;;;40.60
65569;BMP180;52211;50.154;8.682;2022-07-23T13:17:15;100232.00;;;40.60
65569;BMP180;52211;50.154;8.682;2022-07-23T13:19:46;100236.00;;;40.40
65569;BMP180;52211;50.154;8.682;2022-07-23T13:22:13;100230.00;;;40.30
65569;BMP180;52211;50.154;8.682;2022-07-23T13:24:40;100226.00;;;40.20
65569;BMP180;52211;50.154;8.682;2022-07-23T13:27:15;100226.00;;;40.10
65569;BMP180;52211;50.154;8.682;2022-07-23T13:29:47;100229.00;;;40.10
65569;BMP180;52211;50.154;8.682;2022-07-23T13:32:17;100223.00;;;40.00
65569;BMP180;52211;50.154;8.682;2022-07-23T13:34:47;100222.00;;;40.00
65569;BMP180;52211;50.154;8.682;2022-07-23T13:37:16;100223.00;;;39.90
65569;BMP180;52211;50.154;8.682;2022-07-23T13:39:44;100229.00;;;39.70
65569;BMP180;52211;50.154;8.682;2022-07-23T13:42:15;100227.00;;;39.60
65569;BMP180;52211;50.154;8.682;2022-07-23T13:44:46;100218.00;;;39.30
65569;BMP180;52211;50.154;8.682;2022-07-23T13:47:14;100221.00;;;39.00
65569;BMP180;52211;50.154;8.682;2022-07-23T13:49:40;100213.00;;;38.70
65569;BMP180;52211;50.154;8.682;2022-07-23T13:52:16;100210.00;;;38.50
65569;BMP180;52211;50.154;8.682;2022-07-23T13:54:45;100211.00;;;38.50
65569;BMP180;52211;50.154;8.682;2022-07-23T13:57:12;100216.00;;;38.50
65569;BMP180;52211;50.154;8.682;2022-07-23T13:59:39;100211.00;;;38.50
65569;BMP180;52211;50.154;8.682;2022-07-23T14:02:06;100208.00;;;38.60
65569;BMP180;52211;50.154;8.682;2022-07-23T14:04:55;100206.00;;;38.70
65569;BMP180;52211;50.154;8.682;2022-07-23T14:07:24;100213.00;;;38.80
65569;BMP180;52211;50.154;8.682;2022-07-23T14:09:59;100200.00;;;38.60
65569;BMP180;52211;50.154;8.682;2022-07-23T14:12:31;100204.00;;;38.50
65569;BMP180;52211;50.154;8.682;2022-07-23T14:15:04;100205.00;;;38.60
65569;BMP180;52211;50.154;8.682;2022-07-23T14:17:41;100216.00;;;38.70
65569;BMP180;52211;50.154;8.682;2022-07-23T14:20:15;100208.00;;;39.00
65569;BMP180;52211;50.154;8.682;2022-07-23T14:22:45;100205.00;;;39.20
65569;BMP180;52211;50.154;8.682;2022-07-23T14:25:16;100206.00;;;39.50
65569;BMP180;52211;50.154;8.682;2022-07-23T14:27:48;100213.00;;;39.60
65569;BMP180;52211;50.154;8.682;2022-07-23T14:30:17;100209.00;;;39.60
65569;BMP180;52211;50.154;8.682;2022-07-23T14:32:51;100217.00;;;39.50
65569;BMP180;52211;50.154;8.682;2022-07-23T14:35:20;100212.00;;;39.50
65569;BMP180;52211;50.154;8.682;2022-07-23T14:37:47;100210.00;;;39.40
65569;BMP180;52211;50.154;8.682;2022-07-23T14:40:17;100212.00;;;39.30
65569;BMP180;52211;50.154;8.682;2022-07-23T14:42:44;100214.00;;;39.30
65569;BMP180;52211;50.154;8.682;2022-07-23T14:45:12;100215.00;;;39.40
65569;BMP180;52211;50.154;8.682;2022-07-23T14:47:38;100211.00;;;39.60
65569;BMP180;52211;50.154;8.682;2022-07-23T14:50:06;100213.00;;;39.60
65569;BMP180;52211;50.154;8.682;2022-07-23T14:52:33;100207.00;;;39.70
65569;BMP180;52211;50.154;8.682;2022-07-23T14:55:02;100214.00;;;39.70